Time;durP1;ratioP1;P1;durP2;ratioP2;P2;SDS_P1;SDS_P2;PMS_P1;PMS_P2;Temp;Humidity;BMP_temperature;BMP_pressure;BME280_temperature;BME280_humidity;BME280_pressure;Samples;Min_cycle;Max_cycle;Signal;HPM_P1;HPM_P2
2021/06/28 04:31:33;;;;;;;3.50;3.30;;;19.20;99.90;;;;;;5770960;23;20506;-71
2021/06/28 04:34:02;;;;;;;3.60;3.20;;;19.30;99.90;;;;;;4978044;28;20856;-72
2021/06/28 04:36:35;;;;;;;3.40;3.10;;;19.30;99.90;;;;;;4990501;28;20241;-72
2021/06/28 04:39:26;;;;;;;5.90;4.00;;;19.30;99.90;;;;;;4991684;28;20439;-72
2021/06/28 04:42:01;;;;;;;4.80;3.40;;;19.40;99.90;;;;;;5002340;28;20441;-72
2021/06/28 04:44:29;;;;;;;6.50;3.67;;;19.40;99.90;;;;;;5011690;28;20784;-73
2021/06/28 04:47:07;;;;;;;5.13;3.80;;;19.40;99.90;;;;;;5011827;28;20521;-71
2021/06/28 04:49:41;;;;;;;3.27;3.07;;;19.40;99.90;;;;;;5010590;28;20512;-75
2021/06/28 04:52:07;;;;;;;4.40;4.00;;;19.40;99.90;;;;;;5010066;28;21034;-72
2021/06/28 04:54:33;;;;;;;3.90;3.70;;;19.40;99.90;;;;;;4993145;28;20501;-74
2021/06/28 04:56:58;;;;;;;3.57;3.37;;;19.40;99.90;;;;;;5009785;28;20178;-76
2021/06/28 04:59:26;;;;;;;8.70;3.97;;;19.40;99.90;;;;;;5010345;28;20182;-75
2021/06/28 05:02:01;;;;;;;5.60;3.73;;;19.50;99.90;;;;;;5010167;28;20230;-75
2021/06/28 05:04:29;;;;;;;5.30;3.60;;;19.40;99.90;;;;;;5010033;28;20485;-75
2021/06/28 05:06:55;;;;;;;4.53;3.07;;;19.40;99.90;;;;;;4992108;28;20429;-75
2021/06/28 05:09:20;;;;;;;4.23;3.60;;;19.50;99.90;;;;;;4992437;28;20487;-75
2021/06/28 05:11:47;;;;;;;4.30;3.63;;;19.50;99.90;;;;;;4992679;28;20210;-75
2021/06/28 05:14:13;;;;;;;3.30;2.80;;;19.60;99.90;;;;;;5010083;28;20265;-76
2021/06/28 05:16:44;;;;;;;4.20;3.03;;;19.80;99.90;;;;;;5013688;28;20429;-75
2021/06/28 05:19:10;;;;;;;3.97;3.67;;;20.40;99.90;;;;;;4996091;28;20727;-75
2021/06/28 05:21:36;;;;;;;4.73;2.83;;;21.00;99.90;;;;;;5014257;28;20584;-75
2021/06/28 05:24:01;;;;;;;6.30;2.50;;;21.50;99.90;;;;;;4996433;28;20190;-75
2021/06/28 05:26:27;;;;;;;2.87;2.67;;;22.20;99.90;;;;;;5013134;28;20269;-75
2021/06/28 05:28:52;;;;;;;2.47;2.37;;;22.60;99.90;;;;;;5013912;28;20184;-76
2021/06/28 05:31:21;;;;;;;5.13;2.47;;;23.20;99.90;;;;;;5013402;28;20586;-75
2021/06/28 05:33:47;;;;;;;2.30;2.20;;;23.50;99.90;;;;;;5013515;28;20678;-76
2021/06/28 05:36:13;;;;;;;2.13;2.03;;;23.80;99.90;;;;;;5012504;28;20882;-77
2021/06/28 05:38:42;;;;;;;2.23;2.13;;;24.20;99.90;;;;;;5013795;28;20266;-77
2021/06/28 05:41:19;;;;;;;2.70;2.03;;;24.50;99.90;;;;;;5013164;28;20528;-77
2021/06/28 05:43:57;;;;;;;2.63;1.93;;;24.50;99.90;;;;;;4994883;28;20937;-77
2021/06/28 05:46:25;;;;;;;2.10;2.00;;;24.70;99.90;;;;;;4993906;28;20450;-77
2021/06/28 05:48:51;;;;;;;3.17;2.03;;;25.00;99.90;;;;;;5012764;28;20941;-77
2021/06/28 05:51:22;;;;;;;1.90;1.80;;;25.00;99.90;;;;;;5013576;28;20569;-78
2021/06/28 05:53:51;;;;;;;2.00;1.90;;;25.30;99.90;;;;;;4995348;28;20650;-77
2021/06/28 05:56:20;;;;;;;2.13;2.03;;;25.40;99.90;;;;;;5013171;28;20433;-77
2021/06/28 05:58:45;;;;;;;3.10;1.90;;;25.60;99.90;;;;;;5010932;28;20857;-78
2021/06/28 06:01:16;;;;;;;1.80;1.70;;;25.70;99.90;;;;;;5009996;28;20563;-77
2021/06/28 06:03:45;;;;;;;2.87;2.00;;;25.90;99.90;;;;;;5013051;28;20253;-76
2021/06/28 06:06:13;;;;;;;1.80;1.70;;;25.80;99.90;;;;;;5012352;28;20421;-76
2021/06/28 06:08:39;;;;;;;2.30;2.17;;;25.80;99.90;;;;;;5012918;28;20440;-75
2021/06/28 06:11:05;;;;;;;1.83;1.73;;;26.10;99.90;;;;;;5012692;28;20503;-75
2021/06/28 06:13:30;;;;;;;4.30;1.73;;;26.20;99.90;;;;;;5012913;28;20926;-75
2021/06/28 06:15:58;;;;;;;2.23;1.50;;;26.40;99.90;;;;;;5013635;28;20171;-75
2021/06/28 06:18:24;;;;;;;2.23;2.10;;;26.40;99.90;;;;;;5012927;28;20280;-74
2021/06/28 06:20:50;;;;;;;2.20;1.70;;;26.30;99.90;;;;;;5011046;28;20453;-76
2021/06/28 06:23:16;;;;;;;1.80;1.70;;;26.10;99.90;;;;;;4995157;28;20421;-74
2021/06/28 06:25:44;;;;;;;2.47;1.83;;;26.40;99.90;;;;;;5007532;28;20457;-74
2021/06/28 06:28:10;;;;;;;1.43;1.33;;;26.60;99.90;;;;;;5012492;28;20476;-74
2021/06/28 06:30:36;;;;;;;1.57;1.47;;;26.80;99.90;;;;;;5012086;28;20445;-74
2021/06/28 06:33:05;;;;;;;1.97;1.87;;;27.00;99.90;;;;;;5012334;28;20468;-75
2021/06/28 06:35:32;;;;;;;1.87;1.77;;;27.20;99.90;;;;;;5015079;28;20546;-74
2021/06/28 06:38:07;;;;;;;1.50;1.40;;;27.50;99.90;;;;;;5012652;28;20902;-74
2021/06/28 06:40:33;;;;;;;4.20;1.40;;;27.70;99.90;;;;;;5012231;28;20653;-74
2021/06/28 06:42:59;;;;;;;2.67;1.80;;;27.90;99.90;;;;;;5012610;28;20782;-75
2021/06/28 06:45:25;;;;;;;2.20;1.87;;;28.00;99.90;;;;;;5012481;28;20188;-75
2021/06/28 06:47:54;;;;;;;2.30;2.07;;;28.20;99.90;;;;;;4995063;28;20277;-74
2021/06/28 06:50:20;;;;;;;2.10;1.90;;;27.90;99.90;;;;;;5012043;28;20429;-75
2021/06/28 06:52:47;;;;;;;5.57;2.30;;;27.80;99.90;;;;;;5011865;28;20465;-75
2021/06/28 06:55:13;;;;;;;2.33;2.20;;;27.90;99.90;;;;;;5012674;28;20182;-75
2021/06/28 06:57:39;;;;;;;2.63;1.93;;;28.10;99.90;;;;;;4994566;28;20972;-75
2021/06/28 07:00:09;;;;;;;1.80;1.70;;;28.40;99.90;;;;;;5012372;28;20457;-75
2021/06/28 07:02:35;;;;;;;2.80;2.60;;;28.60;99.90;;;;;;4997902;28;20182;-75
2021/06/28 07:05:00;;;;;;;3.57;1.93;;;28.70;99.90;;;;;;5012428;28;20513;-75
2021/06/28 07:07:26;;;;;;;2.80;2.20;;;28.50;99.90;;;;;;4995517;28;20193;-74
2021/06/28 07:09:51;;;;;;;2.57;2.20;;;28.60;99.90;;;;;;5012154;28;20182;-74
2021/06/28 07:12:17;;;;;;;2.40;2.20;;;28.80;99.90;;;;;;5011189;28;20210;-74
2021/06/28 07:14:43;;;;;;;5.03;1.63;;;28.80;99.90;;;;;;5012485;28;20635;-75
2021/06/28 07:17:10;;;;;;;4.37;2.30;;;29.00;99.90;;;;;;4991683;28;20184;-75
2021/06/28 07:19:35;;;;;;;5.53;2.60;;;29.00;99.90;;;;;;4994874;28;20191;-74
2021/06/28 07:22:01;;;;;;;2.33;1.53;;;29.10;99.90;;;;;;5010374;28;20595;-75
2021/06/28 07:24:27;;;;;;;7.60;2.97;;;29.20;99.90;;;;;;5012105;28;20655;-75
2021/06/28 07:26:53;;;;;;;4.03;2.40;;;28.90;99.90;;;;;;5011276;28;20213;-74
2021/06/28 07:29:20;;;;;;;2.47;2.10;;;28.90;99.90;;;;;;5011304;28;20186;-74
2021/06/28 07:31:47;;;;;;;4.07;2.40;;;29.00;99.90;;;;;;5001610;28;20485;-75
2021/06/28 07:34:12;;;;;;;4.00;2.27;;;28.80;99.90;;;;;;5000953;28;20433;-75
2021/06/28 07:36:38;;;;;;;5.00;2.90;;;28.90;99.90;;;;;;5011760;28;20438;-75
2021/06/28 07:39:06;;;;;;;2.73;2.53;;;29.10;99.90;;;;;;5012697;28;20544;-74
2021/06/28 07:41:33;;;;;;;2.20;2.00;;;29.00;99.90;;;;;;5010616;28;20566;-74
2021/06/28 07:44:01;;;;;;;2.10;2.00;;;29.00;99.90;;;;;;4992124;28;20440;-74
2021/06/28 07:46:30;;;;;;;2.80;2.13;;;29.30;99.90;;;;;;5008188;28;20448;-74
2021/06/28 07:48:55;;;;;;;3.37;1.87;;;29.50;99.90;;;;;;4990439;28;21052;-74
2021/06/28 07:51:22;;;;;;;3.73;1.90;;;29.70;99.90;;;;;;5001897;28;20496;-75
2021/06/28 07:53:48;;;;;;;2.23;2.03;;;29.90;99.90;;;;;;4992863;28;20266;-74
2021/06/28 07:56:17;;;;;;;2.00;1.90;;;29.90;99.90;;;;;;5010553;28;20440;-75
2021/06/28 07:58:50;;;;;;;1.93;1.83;;;30.20;99.90;;;;;;5012310;28;20262;-74
2021/06/28 08:01:23;;;;;;;3.80;1.80;;;30.50;99.90;;;;;;4997768;28;20449;-75
2021/06/28 08:03:49;;;;;;;3.07;2.33;;;30.60;99.90;;;;;;5011351;28;20464;-75
2021/06/28 08:06:19;;;;;;;2.10;1.87;;;30.80;99.90;;;;;;4994051;28;20465;-74
2021/06/28 08:08:52;;;;;;;2.50;2.30;;;31.00;99.90;;;;;;4993756;28;20265;-74
2021/06/28 08:11:25;;;;;;;1.80;1.70;;;30.80;99.90;;;;;;5010895;28;20480;-75
2021/06/28 08:14:02;;;;;;;1.60;1.50;;;30.30;99.90;;;;;;5012864;28;20479;-73
2021/06/28 08:16:34;;;;;;;3.13;2.10;;;30.30;99.90;;;;;;5012663;28;21516;-73
2021/06/28 08:19:10;;;;;;;2.10;2.00;;;30.30;99.90;;;;;;5011614;28;20453;-73
2021/06/28 08:21:37;;;;;;;2.27;1.80;;;30.40;99.90;;;;;;4992002;28;20461;-75
2021/06/28 08:24:07;;;;;;;2.23;2.00;;;30.40;99.90;;;;;;5012263;28;20437;-76
2021/06/28 08:26:37;;;;;;;1.63;1.53;;;30.50;99.90;;;;;;4993900;28;20445;-76
2021/06/28 08:29:09;;;;;;;2.70;1.77;;;30.70;99.90;;;;;;5011275;28;20512;-76
2021/06/28 08:31:37;;;;;;;2.37;1.93;;;30.90;99.90;;;;;;5010379;28;20473;-76
2021/06/28 08:34:06;;;;;;;2.23;2.03;;;31.00;99.90;;;;;;5009820;28;20433;-75
2021/06/28 08:36:32;;;;;;;5.57;1.83;;;30.90;99.90;;;;;;5011440;28;20837;-74
2021/06/28 08:38:57;;;;;;;1.77;1.73;;;31.30;99.90;;;;;;5006882;28;20827;-76
2021/06/28 08:41:26;;;;;;;2.23;2.13;;;31.40;99.90;;;;;;4994302;28;20225;-76
2021/06/28 08:43:54;;;;;;;1.83;1.73;;;31.30;99.90;;;;;;4994417;28;20186;-74
2021/06/28 08:46:20;;;;;;;2.10;2.00;;;31.30;99.90;;;;;;5010468;28;20771;-76
2021/06/28 08:48:47;;;;;;;2.30;2.20;;;31.50;99.90;;;;;;5010862;28;20445;-77
2021/06/28 08:51:13;;;;;;;1.70;1.60;;;31.90;99.90;;;;;;5010226;28;20826;-76
2021/06/28 08:53:40;;;;;;;1.30;1.20;;;31.90;99.90;;;;;;5011020;28;20746;-76
2021/06/28 08:56:09;;;;;;;1.43;1.33;;;32.00;99.90;;;;;;5010732;28;20496;-77
2021/06/28 08:58:39;;;;;;;1.90;1.80;;;32.10;99.90;;;;;;4992090;28;20790;-75
2021/06/28 09:01:07;;;;;;;1.77;1.40;;;32.20;99.90;;;;;;5000221;28;20449;-73
2021/06/28 09:03:34;;;;;;;2.20;1.83;;;31.90;99.90;;;;;;5010801;28;20425;-76
2021/06/28 09:06:14;;;;;;;2.10;1.23;;;32.10;99.90;;;;;;5010408;28;20433;-76
2021/06/28 09:09:10;;;;;;;1.80;1.80;;;31.60;99.90;;;;;;4990619;28;20562;-76
2021/06/28 09:11:52;;;;;;;1.40;1.40;;;32.10;99.90;;;;;;5008625;28;20466;-77
2021/06/28 09:14:18;;;;;;;5.73;1.37;;;32.30;99.90;;;;;;5010382;28;20794;-77
2021/06/28 09:16:45;;;;;;;1.43;1.33;;;32.50;99.90;;;;;;5010084;28;20429;-77
2021/06/28 09:19:17;;;;;;;1.47;1.37;;;32.50;99.90;;;;;;5009492;28;20433;-77
2021/06/28 09:21:56;;;;;;;1.47;1.43;;;32.50;99.90;;;;;;5010960;28;20552;-76
2021/06/28 09:24:38;;;;;;;1.80;1.70;;;32.50;99.90;;;;;;5009649;28;20836;-75
2021/06/28 09:27:10;;;;;;;1.83;1.73;;;32.70;99.90;;;;;;5010633;28;20492;-76
2021/06/28 09:29:39;;;;;;;1.60;1.50;;;33.20;99.90;;;;;;5007709;23;20493;-77
2021/06/28 09:32:16;;;;;;;1.83;1.73;;;33.60;99.90;;;;;;5014302;28;20469;-80
2021/06/28 09:34:45;;;;;;;4.10;1.90;;;33.70;99.90;;;;;;5016079;28;20428;-80
2021/06/28 09:37:15;;;;;;;1.60;1.50;;;33.70;99.90;;;;;;5016834;28;20559;-80
2021/06/28 09:39:50;;;;;;;2.03;1.40;;;33.70;99.90;;;;;;5018129;28;20409;-79
2021/06/28 09:42:21;;;;;;;1.77;1.67;;;33.80;99.90;;;;;;5017478;28;20455;-80
2021/06/28 09:44:50;;;;;;;2.07;1.77;;;33.50;99.90;;;;;;5017623;28;20484;-79
2021/06/28 09:47:17;;;;;;;1.90;1.30;;;33.50;99.90;;;;;;5014080;28;20430;-78
2021/06/28 09:50:00;;;;;;;1.40;1.30;;;34.00;99.90;;;;;;5012132;28;20456;-80
2021/06/28 09:52:52;;;;;;;1.33;1.27;;;34.50;99.90;;;;;;5004252;28;20637;-80
2021/06/28 09:55:31;;;;;;;1.87;1.23;;;34.80;99.90;;;;;;5011668;28;20449;-80
2021/06/28 09:58:24;;;;;;;1.63;1.53;;;34.90;99.90;;;;;;5011686;28;20508;-80
2021/06/28 10:00:56;;;;;;;2.17;1.50;;;35.20;99.90;;;;;;5015339;28;20425;-81
2021/06/28 10:03:43;;;;;;;1.80;1.70;;;35.50;99.90;;;;;;5021052;28;20456;-80
2021/06/28 10:08:39;;;;;;;2.10;1.53;;;35.80;97.80;;;;;;5000214;28;20410;-80
2021/06/28 10:11:12;;;;;;;1.77;1.67;;;35.10;99.80;;;;;;4984203;28;20465;-80
2021/06/28 10:13:38;;;;;;;1.87;1.77;;;35.30;99.90;;;;;;5020086;28;20461;-80
2021/06/28 10:16:04;;;;;;;1.50;1.40;;;35.40;99.90;;;;;;5019547;28;20429;-80
2021/06/28 10:18:31;;;;;;;1.60;1.50;;;35.80;99.90;;;;;;5021342;28;20421;-81
2021/06/28 10:20:56;;;;;;;1.67;1.57;;;35.70;99.90;;;;;;5021182;28;20218;-80
2021/06/28 10:23:22;;;;;;;2.20;1.70;;;36.00;99.90;;;;;;5017584;28;20441;-80
2021/06/28 10:25:48;;;;;;;2.90;1.90;;;36.50;99.40;;;;;;5016414;28;20177;-81
2021/06/28 10:28:13;;;;;;;1.37;1.27;;;36.50;99.00;;;;;;5016265;28;20186;-81
2021/06/28 10:30:39;;;;;;;3.40;1.70;;;36.50;97.90;;;;;;5010893;28;20194;-81
2021/06/28 10:33:08;;;;;;;3.90;1.50;;;36.80;97.20;;;;;;4996522;28;20290;-80
2021/06/28 10:35:38;;;;;;;1.70;1.60;;;37.10;96.90;;;;;;4996333;28;20178;-81
2021/06/28 10:38:12;;;;;;;1.57;1.47;;;37.10;97.60;;;;;;5015006;28;20797;-82
2021/06/28 10:40:50;;;;;;;1.63;1.53;;;37.10;96.50;;;;;;5016052;28;20393;-80
2021/06/28 10:43:25;;;;;;;1.23;1.23;;;36.90;97.00;;;;;;4997720;28;20942;-82
2021/06/28 10:45:58;;;;;;;4.80;1.60;;;36.90;95.30;;;;;;5016305;28;20420;-80
2021/06/28 10:48:28;;;;;;;2.60;1.90;;;36.90;95.50;;;;;;4983506;28;20429;-83
2021/06/28 10:51:07;;;;;;;1.90;1.80;;;36.70;96.20;;;;;;5015721;28;20452;-83
2021/06/28 10:53:33;;;;;;;1.70;1.60;;;36.60;97.10;;;;;;5014974;28;21040;-81
2021/06/28 10:55:58;;;;;;;1.70;1.60;;;36.20;96.90;;;;;;4996052;28;20516;-80
2021/06/28 10:58:32;;;;;;;2.30;1.53;;;36.30;98.00;;;;;;5012923;28;20556;-81
2021/06/28 11:01:09;;;;;;;2.53;2.33;;;36.50;95.80;;;;;;5011889;28;20667;-83
2021/06/28 11:03:35;;;;;;;1.90;1.70;;;36.70;93.40;;;;;;5012492;28;20425;-83
2021/06/28 11:06:19;;;;;;;1.23;1.23;;;36.30;94.10;;;;;;5013202;28;20476;-81
2021/06/28 11:09:01;;;;;;;3.83;1.30;;;36.40;95.70;;;;;;5012654;28;20178;-80
2021/06/28 11:11:45;;;;;;;2.23;1.70;;;36.20;95.80;;;;;;5013520;28;20471;-80
2021/06/28 11:14:31;;;;;;;1.97;1.70;;;35.80;95.00;;;;;;5012831;28;20426;-80
2021/06/28 11:17:11;;;;;;;1.73;1.60;;;35.80;95.00;;;;;;5013814;28;20437;-82
2021/06/28 11:19:46;;;;;;;5.53;1.37;;;35.70;96.80;;;;;;5014540;28;20943;-80
2021/06/28 11:22:27;;;;;;;1.83;1.73;;;35.20;95.00;;;;;;5014570;28;20456;-81
2021/06/28 11:25:18;;;;;;;1.60;1.50;;;35.10;93.70;;;;;;5016805;28;20424;-81
2021/06/28 11:28:03;;;;;;;3.33;2.27;;;34.50;95.00;;;;;;5007082;28;20430;-80
2021/06/28 11:30:34;;;;;;;1.73;1.63;;;34.00;94.60;;;;;;5013484;28;20457;-78
2021/06/28 11:33:10;;;;;;;2.60;1.60;;;33.50;94.90;;;;;;5015738;28;20476;-80
2021/06/28 11:35:46;;;;;;;2.30;2.20;;;33.20;97.80;;;;;;5013734;28;20439;-80
2021/06/28 11:38:13;;;;;;;2.20;2.10;;;33.10;98.00;;;;;;4996351;28;20460;-78
2021/06/28 11:40:40;;;;;;;2.50;2.17;;;33.40;99.90;;;;;;5012015;28;20804;-77
2021/06/28 11:43:06;;;;;;;3.13;2.00;;;33.60;99.90;;;;;;4983926;28;20904;-78
2021/06/28 11:45:49;;;;;;;3.17;2.00;;;33.70;99.50;;;;;;5008968;28;20803;-79
2021/06/28 11:48:30;;;;;;;2.37;1.97;;;33.40;99.90;;;;;;5012552;28;20461;-76
2021/06/28 11:50:57;;;;;;;2.20;2.10;;;33.30;99.90;;;;;;5013011;28;20457;-77
2021/06/28 11:53:23;;;;;;;2.27;2.17;;;33.10;99.90;;;;;;5013368;28;20465;-78
2021/06/28 11:55:49;;;;;;;1.97;1.87;;;32.90;99.90;;;;;;5022387;28;20520;-82
2021/06/28 11:58:16;;;;;;;4.47;2.40;;;32.60;99.90;;;;;;5021794;28;20947;-78
2021/06/28 12:00:42;;;;;;;2.33;2.23;;;32.40;99.90;;;;;;4995577;28;20434;-76
2021/06/28 12:03:26;;;;;;;2.00;1.90;;;32.40;99.90;;;;;;4994620;28;20442;-76
2021/06/28 12:05:52;;;;;;;6.33;2.27;;;32.20;99.90;;;;;;5011507;28;20651;-77
2021/06/28 12:08:26;;;;;;;2.37;1.90;;;32.40;99.90;;;;;;5011594;28;20434;-77
2021/06/28 12:10:59;;;;;;;4.33;1.83;;;32.50;99.90;;;;;;5012227;28;20519;-76
2021/06/28 12:13:33;;;;;;;2.60;2.13;;;33.00;99.90;;;;;;5011439;28;20501;-77
2021/06/28 12:16:21;;;;;;;2.17;2.07;;;33.20;99.90;;;;;;5013558;28;20479;-77
2021/06/28 12:18:47;;;;;;;2.37;2.27;;;33.00;99.90;;;;;;5031941;28;20408;-77
2021/06/28 12:21:24;;;;;;;1.97;1.87;;;32.80;99.90;;;;;;5016089;28;20509;-78
2021/06/28 12:24:01;;;;;;;2.07;1.80;;;32.80;99.90;;;;;;5018975;28;20456;-78
2021/06/28 12:26:27;;;;;;;1.90;1.80;;;33.00;99.90;;;;;;5014924;28;20441;-77
2021/06/28 12:28:52;;;;;;;2.33;2.23;;;33.10;99.90;;;;;;5016755;28;20835;-78
2021/06/28 12:31:18;;;;;;;2.13;2.03;;;33.10;99.90;;;;;;5016086;28;20237;-78
2021/06/28 12:33:44;;;;;;;2.40;2.30;;;33.00;99.90;;;;;;5016772;28;20551;-78
2021/06/28 12:36:09;;;;;;;5.43;2.20;;;33.00;99.90;;;;;;5017193;28;20236;-77
2021/06/28 12:38:36;;;;;;;4.30;2.33;;;32.70;99.90;;;;;;5012030;28;20673;-76
2021/06/28 12:41:03;;;;;;;3.00;2.30;;;32.50;99.90;;;;;;5011533;28;20233;-76
2021/06/28 12:43:29;;;;;;;1.90;1.70;;;32.50;99.90;;;;;;5011502;28;20793;-77
2021/06/28 12:45:57;;;;;;;2.40;1.93;;;32.60;99.90;;;;;;4995688;28;20489;-77
2021/06/28 12:48:23;;;;;;;1.70;1.60;;;32.60;99.90;;;;;;5013645;28;20269;-77
2021/06/28 12:51:00;;;;;;;2.27;2.03;;;32.50;99.90;;;;;;5013434;28;20496;-77
2021/06/28 12:53:28;;;;;;;2.80;2.60;;;32.30;99.90;;;;;;5012982;28;21091;-78
2021/06/28 12:56:04;;;;;;;2.10;2.00;;;32.30;99.90;;;;;;5013143;28;20804;-77
2021/06/28 12:58:57;;;;;;;2.63;2.13;;;32.20;99.90;;;;;;5002933;28;20429;-77
2021/06/28 13:01:34;;;;;;;2.70;2.33;;;32.20;99.90;;;;;;5011447;28;20472;-77
2021/06/28 13:04:19;;;;;;;2.30;2.10;;;32.30;99.90;;;;;;5012599;28;20894;-77
2021/06/28 13:06:45;;;;;;;2.27;2.17;;;32.30;99.90;;;;;;5011740;28;20857;-77
2021/06/28 13:09:13;;;;;;;2.20;2.00;;;32.00;99.90;;;;;;5011659;28;20445;-76
2021/06/28 13:12:05;;;;;;;3.00;2.40;;;32.10;99.90;;;;;;5012071;28;20575;-77
2021/06/28 13:14:37;;;;;;;4.60;4.07;;;31.90;99.90;;;;;;5008419;28;20448;-77
2021/06/28 13:17:31;;;;;;;2.53;2.33;;;31.70;99.90;;;;;;4994247;28;20418;-77
2021/06/28 13:19:57;;;;;;;2.30;2.20;;;31.50;99.90;;;;;;5010251;28;20436;-77
2021/06/28 13:22:23;;;;;;;2.70;2.50;;;31.60;99.90;;;;;;5012118;28;20568;-76
2021/06/28 13:24:51;;;;;;;2.43;2.23;;;31.80;99.90;;;;;;5014768;28;20429;-78
2021/06/28 13:27:24;;;;;;;2.47;2.23;;;31.70;99.90;;;;;;5012464;28;20759;-77
2021/06/28 13:29:50;;;;;;;1.93;1.83;;;31.70;99.90;;;;;;5008203;28;20452;-77
2021/06/28 13:32:25;;;;;;;1.93;1.83;;;31.50;99.90;;;;;;5010537;28;20469;-77
2021/06/28 13:34:53;;;;;;;3.77;2.53;;;31.30;99.90;;;;;;5011161;28;20176;-77
2021/06/28 13:37:35;;;;;;;3.53;2.67;;;31.20;99.90;;;;;;5013821;28;20532;-77
2021/06/28 13:40:04;;;;;;;2.40;2.30;;;31.10;99.90;;;;;;5016514;28;20472;-78
2021/06/28 13:42:32;;;;;;;2.47;2.27;;;31.00;99.90;;;;;;5015665;28;20449;-78
2021/06/28 13:45:20;;;;;;;2.30;2.13;;;30.90;99.90;;;;;;4996061;28;20434;-78
2021/06/28 13:47:50;;;;;;;3.50;2.10;;;31.00;99.90;;;;;;5014853;28;20436;-77
2021/06/28 13:50:18;;;;;;;2.37;2.27;;;30.70;99.90;;;;;;5015746;28;20453;-78
2021/06/28 13:52:44;;;;;;;2.53;2.30;;;30.70;99.90;;;;;;5015812;28;21011;-77
2021/06/28 13:55:10;;;;;;;4.87;2.73;;;30.90;99.90;;;;;;4997280;28;20520;-78
2021/06/28 13:57:53;;;;;;;2.40;2.20;;;31.10;99.90;;;;;;4997863;28;20190;-78
2021/06/28 14:00:23;;;;;;;5.57;3.17;;;31.20;99.90;;;;;;5014674;28;20560;-79
2021/06/28 14:02:49;;;;;;;3.00;2.90;;;31.20;99.90;;;;;;5014492;28;20463;-79
2021/06/28 14:05:14;;;;;;;2.10;2.00;;;31.10;99.90;;;;;;5016878;28;20477;-78
2021/06/28 14:07:40;;;;;;;2.50;2.30;;;31.30;99.90;;;;;;5016073;28;20659;-78
2021/06/28 14:10:07;;;;;;;2.97;2.77;;;31.30;99.90;;;;;;4998710;28;20682;-77
2021/06/28 14:12:33;;;;;;;3.93;2.20;;;31.20;99.90;;;;;;5015661;28;20600;-78
2021/06/28 14:14:58;;;;;;;3.63;2.73;;;30.80;99.90;;;;;;5016489;28;20933;-78
2021/06/28 14:17:24;;;;;;;2.37;2.20;;;30.80;99.90;;;;;;5015805;28;20242;-78
2021/06/28 14:19:49;;;;;;;2.27;2.17;;;30.90;99.90;;;;;;5017413;28;20182;-78
2021/06/28 14:22:15;;;;;;;2.40;2.20;;;30.90;99.90;;;;;;5015003;28;20194;-78
2021/06/28 14:24:40;;;;;;;2.00;1.90;;;30.80;99.90;;;;;;5015025;28;20296;-78
2021/06/28 14:27:06;;;;;;;2.37;2.27;;;30.90;99.90;;;;;;5015240;28;20183;-78
2021/06/28 14:29:33;;;;;;;3.37;2.23;;;30.90;99.90;;;;;;5015626;28;20198;-78
2021/06/28 14:31:59;;;;;;;4.03;2.27;;;30.80;99.90;;;;;;5016281;28;20207;-78
2021/06/28 14:34:25;;;;;;;2.80;2.60;;;30.50;99.90;;;;;;5011523;28;20436;-78
2021/06/28 14:36:51;;;;;;;3.37;3.07;;;30.30;99.90;;;;;;5016501;28;20513;-79
2021/06/28 14:39:16;;;;;;;2.87;2.77;;;30.20;99.90;;;;;;5015517;28;20175;-78
2021/06/28 14:41:42;;;;;;;2.53;2.43;;;30.10;99.90;;;;;;5015927;28;20218;-79
2021/06/28 14:44:07;;;;;;;3.00;2.80;;;30.00;99.90;;;;;;5011786;28;20180;-78
2021/06/28 14:46:33;;;;;;;4.93;2.27;;;30.00;99.90;;;;;;5000655;28;20199;-78
2021/06/28 14:48:58;;;;;;;3.00;2.80;;;30.00;99.90;;;;;;5025641;28;20258;-78
2021/06/28 14:51:24;;;;;;;2.70;2.50;;;30.00;99.90;;;;;;5017219;28;20210;-78
2021/06/28 14:53:49;;;;;;;2.73;2.60;;;29.90;99.90;;;;;;5015130;28;20178;-79
2021/06/28 14:56:15;;;;;;;3.37;3.07;;;29.80;99.90;;;;;;5016036;28;20187;-78
2021/06/28 14:58:40;;;;;;;2.57;2.47;;;29.70;99.90;;;;;;4996003;28;20175;-78
2021/06/28 15:01:06;;;;;;;4.93;3.00;;;29.60;99.90;;;;;;5015920;28;20281;-78
2021/06/28 15:03:32;;;;;;;3.97;3.13;;;29.50;99.90;;;;;;5014987;28;20182;-78
2021/06/28 15:05:57;;;;;;;3.63;2.53;;;29.50;99.90;;;;;;4997705;28;20179;-78
2021/06/28 15:08:23;;;;;;;3.10;2.77;;;29.50;99.90;;;;;;5014573;28;20187;-76
2021/06/28 15:10:49;;;;;;;3.73;3.03;;;29.40;99.90;;;;;;5012834;28;20253;-76
2021/06/28 15:13:14;;;;;;;4.20;3.10;;;29.50;99.90;;;;;;4994495;28;20199;-76
2021/06/28 15:15:40;;;;;;;3.30;3.00;;;29.60;99.90;;;;;;5005117;28;20184;-77
2021/06/28 15:18:05;;;;;;;3.40;3.10;;;29.50;99.90;;;;;;4998725;28;20233;-75
2021/06/28 15:20:31;;;;;;;4.10;3.80;;;29.50;99.90;;;;;;5012379;28;20256;-76
2021/06/28 15:22:56;;;;;;;2.90;2.70;;;29.40;99.90;;;;;;5014912;28;20686;-79
2021/06/28 15:25:23;;;;;;;2.60;2.40;;;29.30;99.90;;;;;;5016664;28;20181;-76
2021/06/28 15:27:50;;;;;;;3.00;2.80;;;29.20;99.90;;;;;;5012019;28;20670;-77
2021/06/28 15:30:23;;;;;;;3.07;2.87;;;29.10;99.90;;;;;;5015406;28;20520;-77
2021/06/28 15:32:49;;;;;;;3.27;2.50;;;28.90;99.90;;;;;;4996912;28;20528;-76
2021/06/28 15:35:16;;;;;;;2.70;2.53;;;28.80;99.90;;;;;;5015129;28;20433;-78
2021/06/28 15:37:42;;;;;;;3.03;2.93;;;28.70;99.90;;;;;;5014816;28;20942;-79
2021/06/28 15:40:10;;;;;;;2.50;2.40;;;28.50;99.90;;;;;;5015558;28;20563;-78
2021/06/28 15:42:37;;;;;;;4.70;2.83;;;28.30;99.90;;;;;;5015336;28;20445;-77
2021/06/28 15:45:06;;;;;;;9.13;2.83;;;28.20;99.90;;;;;;5017407;28;20783;-78
2021/06/28 15:47:31;;;;;;;2.77;2.53;;;28.10;99.90;;;;;;5013595;28;20476;-75
2021/06/28 15:49:57;;;;;;;3.90;2.50;;;28.10;99.90;;;;;;5010632;28;20426;-75
2021/06/28 15:52:22;;;;;;;5.20;2.43;;;28.00;99.90;;;;;;5010706;28;20206;-75
2021/06/28 15:54:48;;;;;;;3.70;2.50;;;28.10;99.90;;;;;;5011736;28;20175;-75
2021/06/28 15:57:15;;;;;;;2.50;2.40;;;28.20;99.90;;;;;;5012013;28;20183;-75
2021/06/28 15:59:41;;;;;;;2.90;2.60;;;28.10;99.90;;;;;;5011588;28;20496;-76
2021/06/28 16:02:07;;;;;;;2.90;2.70;;;28.10;99.90;;;;;;5011996;28;20437;-76
2021/06/28 16:04:33;;;;;;;2.50;2.40;;;28.00;99.90;;;;;;5011559;28;20465;-76
2021/06/28 16:06:58;;;;;;;3.17;2.87;;;27.90;99.90;;;;;;4994175;28;20457;-76
2021/06/28 16:09:24;;;;;;;5.80;3.13;;;27.80;99.90;;;;;;4994031;28;20182;-76
2021/06/28 16:11:49;;;;;;;2.67;2.50;;;27.70;99.90;;;;;;5011905;28;20207;-76
2021/06/28 16:14:15;;;;;;;2.43;2.30;;;27.60;99.90;;;;;;5011436;28;20189;-76
2021/06/28 16:16:40;;;;;;;2.70;2.50;;;27.40;99.90;;;;;;5011734;28;20178;-76
2021/06/28 16:19:06;;;;;;;3.43;2.53;;;27.30;99.90;;;;;;5011485;28;20190;-75
2021/06/28 16:21:33;;;;;;;3.57;2.70;;;27.20;99.90;;;;;;5011304;28;22041;-76
2021/06/28 16:24:01;;;;;;;2.00;1.90;;;27.00;99.90;;;;;;5011278;28;20714;-76
2021/06/28 16:26:27;;;;;;;3.83;2.83;;;27.00;99.90;;;;;;5011350;28;20750;-75
2021/06/28 16:28:52;;;;;;;4.23;2.33;;;26.80;99.90;;;;;;5011310;28;20457;-76
2021/06/28 16:31:18;;;;;;;2.70;2.50;;;26.70;99.90;;;;;;5010752;28;20453;-75
2021/06/28 16:33:44;;;;;;;3.33;2.50;;;26.70;99.90;;;;;;5010947;28;20262;-76
2021/06/28 16:36:09;;;;;;;3.30;2.77;;;26.50;99.90;;;;;;5010995;28;20674;-76
2021/06/28 16:38:35;;;;;;;4.13;2.90;;;26.30;99.90;;;;;;5011414;28;20184;-75
2021/06/28 16:41:00;;;;;;;3.33;2.40;;;26.30;99.90;;;;;;4993458;28;20199;-76
2021/06/28 16:43:26;;;;;;;2.70;2.60;;;26.20;99.90;;;;;;5011077;28;20614;-75
2021/06/28 16:45:51;;;;;;;3.20;2.90;;;26.20;99.90;;;;;;5011266;28;20187;-76
2021/06/28 16:48:17;;;;;;;2.80;2.60;;;26.10;99.90;;;;;;5011509;28;20190;-76
2021/06/28 16:50:42;;;;;;;3.30;2.93;;;26.10;99.90;;;;;;5011271;28;20178;-76
2021/06/28 16:53:08;;;;;;;2.50;2.30;;;26.00;99.90;;;;;;4993473;28;20217;-75
2021/06/28 16:55:34;;;;;;;8.23;2.73;;;25.90;99.90;;;;;;5011069;28;20185;-74
2021/06/28 16:58:00;;;;;;;6.43;3.30;;;25.80;99.90;;;;;;5011078;28;20421;-75
2021/06/28 17:00:26;;;;;;;2.50;2.30;;;25.70;99.90;;;;;;5010734;28;20854;-76
2021/06/28 17:02:51;;;;;;;6.03;3.30;;;25.80;99.90;;;;;;5010848;28;20245;-76
2021/06/28 17:05:17;;;;;;;3.23;3.03;;;25.60;99.90;;;;;;5010781;28;20218;-75
2021/06/28 17:07:42;;;;;;;4.60;3.03;;;25.60;99.90;;;;;;5011058;28;20194;-75
2021/06/28 17:10:08;;;;;;;2.80;2.53;;;25.60;99.90;;;;;;5010752;28;20210;-76
2021/06/28 17:12:34;;;;;;;3.40;3.17;;;25.60;99.90;;;;;;5014943;28;20211;-75
2021/06/28 17:15:00;;;;;;;2.90;2.80;;;25.50;99.90;;;;;;5014716;28;20499;-76
2021/06/28 17:17:26;;;;;;;2.93;2.83;;;25.50;99.90;;;;;;5016885;28;20425;-76
2021/06/28 17:19:51;;;;;;;2.97;2.70;;;25.50;99.90;;;;;;4993874;28;20174;-71
2021/06/28 17:22:17;;;;;;;3.07;2.87;;;25.50;99.90;;;;;;5007250;28;20210;-72
2021/06/28 17:24:43;;;;;;;2.67;2.57;;;25.50;99.90;;;;;;5014357;28;20175;-72
2021/06/28 17:27:08;;;;;;;3.93;3.63;;;25.40;99.90;;;;;;5013966;28;20888;-71
2021/06/28 17:29:34;;;;;;;5.43;2.63;;;25.30;99.90;;;;;;5014156;28;20282;-71
2021/06/28 17:32:00;;;;;;;2.97;2.73;;;25.30;99.90;;;;;;5014110;28;20210;-71